createdAt,value
2019-03-29T00:01:54.877Z,8.37
2019-03-29T00:04:22.998Z,8.13
2019-03-29T00:06:51.218Z,8.30
2019-03-29T00:09:38.719Z,9.37
2019-03-29T00:12:06.895Z,8.47
2019-03-29T00:14:35.049Z,8.03
2019-03-29T00:17:03.250Z,7.60
2019-03-29T00:19:31.402Z,7.30
2019-03-29T00:21:59.527Z,8.37
2019-03-29T00:24:27.862Z,7.53
2019-03-29T00:26:55.975Z,7.80
2019-03-29T00:29:24.107Z,7.47
2019-03-29T00:31:52.381Z,7.67
2019-03-29T00:34:20.529Z,8.20
2019-03-29T00:37:08.066Z,7.87
2019-03-29T00:39:36.195Z,8.03
2019-03-29T00:42:04.298Z,7.90
2019-03-29T00:47:12.554Z,7.33
2019-03-29T00:49:40.999Z,8.27
2019-03-29T00:52:09.204Z,8.20
2019-03-29T00:54:37.390Z,9.73
2019-03-29T00:57:05.514Z,8.80
2019-03-29T00:59:33.651Z,8.80
2019-03-29T01:02:02.002Z,9.83
2019-03-29T01:04:30.141Z,10.20
2019-03-29T01:06:58.296Z,10.33
2019-03-29T01:09:26.742Z,10.80
2019-03-29T01:11:54.898Z,10.43
2019-03-29T01:14:23.046Z,11.85
2019-03-29T01:16:51.242Z,12.13
2019-03-29T01:19:19.398Z,11.50
2019-03-29T01:21:47.606Z,11.13
2019-03-29T01:24:15.972Z,12.40
2019-03-29T01:26:44.349Z,12.00
2019-03-29T01:29:12.503Z,11.40
2019-03-29T01:31:40.980Z,12.50
2019-03-29T01:34:09.311Z,12.13
2019-03-29T01:36:37.450Z,13.27
2019-03-29T01:39:06.029Z,13.10
2019-03-29T01:41:34.174Z,14.30
2019-03-29T01:44:21.827Z,14.67
2019-03-29T01:46:50.011Z,13.90
2019-03-29T01:49:18.161Z,14.30
2019-03-29T01:51:46.340Z,14.43
2019-03-29T01:54:33.890Z,14.73
2019-03-29T01:57:02.325Z,15.53
2019-03-29T01:59:30.477Z,15.30
2019-03-29T02:01:58.618Z,16.17
2019-03-29T02:04:26.846Z,15.53
2019-03-29T02:06:54.994Z,15.80
2019-03-29T02:09:23.143Z,15.25
2019-03-29T02:11:51.405Z,16.20
2019-03-29T02:14:19.527Z,17.40
2019-03-29T02:16:47.656Z,17.67
2019-03-29T02:19:16.218Z,18.30
2019-03-29T02:21:44.322Z,17.30
2019-03-29T02:24:12.433Z,17.97
2019-03-29T02:26:40.699Z,17.80
2019-03-29T02:29:08.814Z,17.40
2019-03-29T02:31:36.943Z,19.30
2019-03-29T02:34:05.165Z,18.47
2019-03-29T02:36:34.498Z,20.02
2019-03-29T02:39:03.862Z,18.97
2019-03-29T02:41:32.142Z,18.23
2019-03-29T02:44:00.263Z,18.25
2019-03-29T02:46:28.390Z,18.07
2019-03-29T02:48:56.759Z,18.60
2019-03-29T02:51:24.871Z,20.77
2019-03-29T02:53:53.001Z,18.73
2019-03-29T02:56:21.254Z,19.30
2019-03-29T02:58:49.586Z,18.20
2019-03-29T03:01:17.695Z,18.07
2019-03-29T03:03:46.030Z,19.50
2019-03-29T03:06:14.159Z,19.23
2019-03-29T03:08:42.298Z,19.73
2019-03-29T03:11:10.538Z,19.30
2019-03-29T03:13:38.642Z,19.20
2019-03-29T03:16:06.760Z,19.00
2019-03-29T03:18:54.255Z,19.50
2019-03-29T03:21:22.727Z,18.43
2019-03-29T03:23:50.833Z,19.93
2019-03-29T03:26:19.182Z,19.40
2019-03-29T03:28:47.325Z,18.83
2019-03-29T03:31:15.458Z,18.77
2019-03-29T03:33:43.655Z,19.70
2019-03-29T03:36:11.742Z,19.10
2019-03-29T03:38:39.854Z,18.93
2019-03-29T03:41:08.268Z,19.27
2019-03-29T03:43:36.387Z,19.13
2019-03-29T03:46:04.479Z,19.63
2019-03-29T03:48:32.667Z,18.92
2019-03-29T03:51:00.885Z,19.40
2019-03-29T03:53:29.082Z,18.87
2019-03-29T03:55:58.090Z,20.07
2019-03-29T03:58:26.176Z,19.47
2019-03-29T04:00:55.165Z,19.30
2019-03-29T04:03:44.268Z,19.10
2019-03-29T04:06:12.375Z,19.00
2019-03-29T04:08:40.479Z,18.97
2019-03-29T04:11:08.642Z,19.73
2019-03-29T04:13:36.746Z,21.23
2019-03-29T04:16:04.922Z,19.87
2019-03-29T04:18:33.065Z,19.00
2019-03-29T04:21:01.158Z,19.50
2019-03-29T04:23:54.391Z,19.23
2019-03-29T04:26:47.679Z,20.50
2019-03-29T04:29:16.065Z,19.43
2019-03-29T04:31:44.164Z,18.80
2019-03-29T04:34:12.266Z,19.93
2019-03-29T04:36:40.579Z,19.60
2019-03-29T04:39:08.700Z,19.10
2019-03-29T04:41:36.802Z,19.03
2019-03-29T04:44:05.101Z,19.87
2019-03-29T04:46:33.221Z,20.10
2019-03-29T04:49:01.312Z,20.27
2019-03-29T04:51:29.434Z,20.10
2019-03-29T04:53:57.529Z,20.67
2019-03-29T04:56:25.634Z,21.77
2019-03-29T04:58:53.974Z,20.87
2019-03-29T05:01:22.079Z,20.47
2019-03-29T05:03:50.159Z,20.83
2019-03-29T05:06:18.446Z,20.90
2019-03-29T05:08:46.547Z,20.83
2019-03-29T05:11:14.639Z,19.43
2019-03-29T05:13:42.954Z,20.93
2019-03-29T05:16:11.049Z,19.77
2019-03-29T05:18:39.195Z,19.87
2019-03-29T05:21:07.641Z,20.80
2019-03-29T05:23:38.382Z,19.90
2019-03-29T05:26:06.481Z,20.30
2019-03-29T05:28:35.170Z,20.53
2019-03-29T05:31:03.662Z,20.30
2019-03-29T05:33:31.808Z,19.73
2019-03-29T05:35:59.981Z,20.90
2019-03-29T05:38:28.078Z,19.50
2019-03-29T05:40:56.157Z,20.33
2019-03-29T05:43:24.427Z,22.13
2019-03-29T05:45:52.546Z,22.33
2019-03-29T05:48:20.658Z,19.80
2019-03-29T05:50:48.890Z,19.40
2019-03-29T05:53:16.996Z,19.73
2019-03-29T05:55:48.108Z,19.27
2019-03-29T05:58:15.049Z,20.00
2019-03-29T06:00:43.156Z,19.90
2019-03-29T06:03:11.273Z,22.40
2019-03-29T06:05:39.497Z,20.50
2019-03-29T06:08:07.589Z,19.50
2019-03-29T06:10:48.407Z,19.27
2019-03-29T06:13:05.590Z,18.23
2019-03-29T06:15:33.754Z,19.07
2019-03-29T06:18:01.915Z,19.50
2019-03-29T06:20:30.203Z,18.00
2019-03-29T06:22:58.645Z,17.37
2019-03-29T06:25:27.522Z,17.10
2019-03-29T06:27:55.739Z,16.42
2019-03-29T06:30:30.330Z,17.40
2019-03-29T06:32:58.548Z,15.57
2019-03-29T06:35:28.276Z,16.27
2019-03-29T06:37:56.519Z,15.93
2019-03-29T06:40:25.018Z,16.30
2019-03-29T06:42:53.285Z,14.58
2019-03-29T06:45:21.433Z,15.05
2019-03-29T06:47:49.602Z,17.37
2019-03-29T06:50:18.121Z,21.48
2019-03-29T06:52:46.263Z,19.50
2019-03-29T06:55:14.422Z,14.58
2019-03-29T06:57:42.843Z,14.45
2019-03-29T07:00:11.017Z,12.73
2019-03-29T07:02:39.158Z,12.05
2019-03-29T07:05:07.565Z,11.90
2019-03-29T07:07:35.753Z,12.50
2019-03-29T07:10:06.904Z,11.90
2019-03-29T07:12:37.996Z,10.60
2019-03-29T07:15:06.317Z,10.58
2019-03-29T07:17:34.442Z,9.08
2019-03-29T07:20:03.066Z,8.60
2019-03-29T07:22:34.441Z,9.78
2019-03-29T07:25:01.055Z,9.00
2019-03-29T07:27:38.770Z,10.00
2019-03-29T07:29:59.131Z,8.53
2019-03-29T07:32:27.294Z,8.40
2019-03-29T07:34:55.449Z,7.83
2019-03-29T07:37:23.590Z,8.93
2019-03-29T07:39:53.826Z,8.50
2019-03-29T07:42:21.854Z,8.23
2019-03-29T07:44:49.989Z,7.80
2019-03-29T07:47:18.123Z,6.92
2019-03-29T07:49:46.383Z,7.15
2019-03-29T07:52:14.626Z,7.30
2019-03-29T07:54:42.771Z,6.60
2019-03-29T07:57:11.119Z,6.87
2019-03-29T07:59:39.270Z,5.83
2019-03-29T08:02:07.396Z,5.95
2019-03-29T08:04:35.883Z,5.85
2019-03-29T08:07:04.018Z,5.60
2019-03-29T08:09:32.156Z,6.33
2019-03-29T08:12:00.313Z,4.60
2019-03-29T08:14:28.465Z,5.28
2019-03-29T08:16:56.605Z,4.45
2019-03-29T08:19:25.070Z,5.40
2019-03-29T08:21:53.211Z,8.85
2019-03-29T08:24:21.354Z,6.65
2019-03-29T08:26:49.802Z,7.45
2019-03-29T08:29:17.938Z,5.95
2019-03-29T08:31:46.126Z,6.75
2019-03-29T08:34:14.297Z,7.15
2019-03-29T08:36:42.441Z,7.58
2019-03-29T08:39:10.642Z,7.95
2019-03-29T08:41:39.010Z,7.25
2019-03-29T08:44:07.150Z,7.78
2019-03-29T08:46:35.277Z,7.33
2019-03-29T08:49:03.518Z,7.40
2019-03-29T08:51:31.665Z,7.37
2019-03-29T08:53:59.986Z,7.75
2019-03-29T08:56:28.180Z,8.23
2019-03-29T08:58:56.326Z,7.62
2019-03-29T09:01:24.537Z,7.12
2019-03-29T09:04:03.219Z,7.20
2019-03-29T09:06:22.646Z,6.75
2019-03-29T09:08:50.792Z,7.00
2019-03-29T09:11:18.999Z,7.22
2019-03-29T09:13:47.132Z,7.60
2019-03-29T09:16:15.275Z,6.65
2019-03-29T09:18:43.766Z,6.80
2019-03-29T09:21:11.912Z,6.92
2019-03-29T09:23:40.055Z,5.78
2019-03-29T09:26:08.330Z,8.08
2019-03-29T09:28:36.473Z,6.65
2019-03-29T09:31:04.780Z,6.87
2019-03-29T09:33:33.039Z,7.45
2019-03-29T09:36:04.708Z,7.22
2019-03-29T09:38:31.050Z,8.45
2019-03-29T09:40:59.511Z,7.25
2019-03-29T09:43:27.750Z,8.05
2019-03-29T09:45:55.938Z,7.25
2019-03-29T09:48:24.298Z,8.45
2019-03-29T09:50:52.430Z,8.30
2019-03-29T09:53:20.579Z,8.00
2019-03-29T09:55:48.759Z,7.17
2019-03-29T09:58:17.101Z,6.67
2019-03-29T10:00:45.313Z,6.47
2019-03-29T10:03:13.934Z,6.00
2019-03-29T10:05:42.065Z,6.17
2019-03-29T10:08:10.214Z,7.40
2019-03-29T10:10:38.354Z,7.17
2019-03-29T10:13:06.660Z,6.90
2019-03-29T10:15:34.808Z,7.87
2019-03-29T10:18:03.276Z,7.42
2019-03-29T10:20:31.414Z,6.42
2019-03-29T10:22:59.554Z,6.70
2019-03-29T10:25:27.842Z,6.47
2019-03-29T10:27:55.994Z,6.08
2019-03-29T10:30:25.643Z,5.97
2019-03-29T10:32:55.443Z,6.20
2019-03-29T10:35:23.730Z,6.28
2019-03-29T10:37:51.864Z,5.85
2019-03-29T10:40:21.745Z,7.05
2019-03-29T10:42:57.610Z,6.53
2019-03-29T10:45:19.966Z,6.17
2019-03-29T10:47:48.329Z,6.10
2019-03-29T10:50:16.497Z,6.80
2019-03-29T10:52:44.635Z,7.12
2019-03-29T10:55:12.970Z,7.67
2019-03-29T10:57:41.115Z,6.80
2019-03-29T11:00:11.867Z,7.58
2019-03-29T11:02:40.037Z,6.78
2019-03-29T11:05:08.178Z,6.70
2019-03-29T11:07:36.331Z,6.40
2019-03-29T11:10:06.077Z,6.92
2019-03-29T11:12:34.214Z,6.72
2019-03-29T11:15:02.341Z,6.45
2019-03-29T11:17:30.890Z,7.62
2019-03-29T11:19:59.023Z,6.83
2019-03-29T11:22:27.165Z,7.60
2019-03-29T11:24:55.339Z,7.62
2019-03-29T11:27:23.479Z,7.67
2019-03-29T11:29:51.617Z,6.60
2019-03-29T11:32:19.789Z,7.22
2019-03-29T11:34:47.919Z,7.10
2019-03-29T11:37:16.050Z,7.53
2019-03-29T11:39:44.553Z,7.72
2019-03-29T11:42:12.690Z,7.03
2019-03-29T11:44:40.851Z,7.80
2019-03-29T11:47:09.206Z,7.47
2019-03-29T11:49:37.341Z,7.10
2019-03-29T11:52:05.554Z,7.75
2019-03-29T11:54:33.906Z,6.85
2019-03-29T11:57:02.122Z,7.08
2019-03-29T11:59:30.253Z,6.58
2019-03-29T12:01:58.540Z,7.33
2019-03-29T12:04:26.677Z,8.48
2019-03-29T12:06:54.808Z,8.20
2019-03-29T12:09:22.978Z,7.50
2019-03-29T12:11:51.129Z,7.97
2019-03-29T12:14:19.262Z,6.80
2019-03-29T12:16:47.562Z,6.75
2019-03-29T12:19:15.698Z,6.62
2019-03-29T12:21:43.854Z,7.55
2019-03-29T12:24:12.126Z,8.18
2019-03-29T12:26:40.264Z,7.00
2019-03-29T12:29:08.400Z,6.58
2019-03-29T12:31:36.573Z,7.20
2019-03-29T12:34:04.747Z,6.70
2019-03-29T12:36:32.882Z,6.87
2019-03-29T12:39:01.116Z,6.03
2019-03-29T12:41:29.240Z,7.35
2019-03-29T12:43:57.375Z,7.40
2019-03-29T12:46:25.749Z,7.55
2019-03-29T12:48:53.933Z,7.47
2019-03-29T12:51:22.082Z,7.30
2019-03-29T12:53:50.606Z,7.22
2019-03-29T12:56:18.750Z,7.03
2019-03-29T12:58:46.898Z,8.10
2019-03-29T13:01:15.331Z,7.10
2019-03-29T13:03:43.469Z,7.20
2019-03-29T13:06:11.594Z,6.90
2019-03-29T13:08:40.028Z,8.20
2019-03-29T13:11:08.185Z,20.97
2019-03-29T13:13:36.341Z,7.80
2019-03-29T13:16:04.485Z,19.60
2019-03-29T13:18:32.721Z,19.90
2019-03-29T13:21:00.863Z,10.10
2019-03-29T13:23:29.258Z,8.48
2019-03-29T13:25:57.413Z,9.73
2019-03-29T13:28:25.538Z,9.10
2019-03-29T13:30:53.755Z,12.20
2019-03-29T13:33:21.890Z,7.28
2019-03-29T13:35:50.040Z,6.47
2019-03-29T13:38:20.439Z,16.77
2019-03-29T13:40:48.438Z,9.48
2019-03-29T13:43:16.576Z,9.58
2019-03-29T13:45:44.906Z,7.95
2019-03-29T13:48:13.052Z,8.88
2019-03-29T13:50:41.194Z,6.72
2019-03-29T13:53:09.806Z,6.22
2019-03-29T13:55:37.954Z,6.30
2019-03-29T13:58:06.090Z,5.70
2019-03-29T14:00:34.805Z,6.25
2019-03-29T14:03:02.938Z,7.70
2019-03-29T14:05:31.083Z,7.53
2019-03-29T14:07:59.414Z,7.92
2019-03-29T14:10:27.556Z,8.55
2019-03-29T14:12:55.690Z,7.62
2019-03-29T14:15:23.846Z,7.70
2019-03-29T14:17:51.989Z,8.08
2019-03-29T14:20:30.454Z,7.92
2019-03-29T14:22:58.585Z,7.47
2019-03-29T14:25:26.714Z,7.40
2019-03-29T14:27:55.070Z,8.03
2019-03-29T14:30:23.206Z,8.35
2019-03-29T14:32:51.393Z,7.95
2019-03-29T14:35:19.664Z,8.93
2019-03-29T14:37:47.820Z,8.48
2019-03-29T14:40:16.022Z,7.75
2019-03-29T14:42:44.329Z,8.38
2019-03-29T14:45:12.553Z,8.53
2019-03-29T14:47:43.454Z,7.92
2019-03-29T14:50:11.742Z,9.20
2019-03-29T14:52:39.899Z,8.58
2019-03-29T14:55:08.175Z,11.18
2019-03-29T14:57:36.552Z,8.40
2019-03-29T15:00:08.923Z,9.20
2019-03-29T15:02:37.053Z,8.15
2019-03-29T15:05:06.581Z,7.50
2019-03-29T15:07:34.791Z,9.58
2019-03-29T15:10:03.991Z,8.70
2019-03-29T15:12:32.282Z,8.08
2019-03-29T15:15:06.376Z,9.08
2019-03-29T15:17:30.282Z,9.38
2019-03-29T15:19:58.637Z,8.75
2019-03-29T15:22:26.768Z,7.92
2019-03-29T15:24:54.917Z,9.63
2019-03-29T15:27:23.133Z,8.98
2019-03-29T15:29:51.286Z,9.20
2019-03-29T15:32:19.441Z,8.40
2019-03-29T15:34:47.625Z,8.78
2019-03-29T15:37:15.758Z,9.58
2019-03-29T15:39:43.890Z,8.23
2019-03-29T15:42:12.479Z,10.03
2019-03-29T15:44:40.611Z,9.30
2019-03-29T15:47:08.745Z,8.15
2019-03-29T15:49:37.089Z,8.68
2019-03-29T15:52:05.240Z,9.00
2019-03-29T15:54:33.346Z,9.00
2019-03-29T15:57:01.579Z,8.88
2019-03-29T15:59:29.725Z,8.98
2019-03-29T16:01:57.890Z,10.05
2019-03-29T16:04:26.105Z,9.25
2019-03-29T16:06:54.230Z,9.35
2019-03-29T16:09:22.391Z,8.50
2019-03-29T16:11:50.637Z,9.70
2019-03-29T16:14:18.790Z,9.53
2019-03-29T16:16:47.001Z,9.75
2019-03-29T16:19:15.477Z,9.55
2019-03-29T16:21:43.615Z,9.50
2019-03-29T16:24:11.762Z,9.43
2019-03-29T16:26:40.114Z,8.90
2019-03-29T16:29:08.262Z,9.73
2019-03-29T16:31:36.410Z,9.10
2019-03-29T16:34:04.627Z,9.58
2019-03-29T16:36:32.989Z,10.23
2019-03-29T16:39:01.135Z,8.33
2019-03-29T16:41:29.604Z,9.25
2019-03-29T16:43:57.744Z,9.23
2019-03-29T16:46:25.888Z,9.18
2019-03-29T16:48:54.209Z,9.55
2019-03-29T16:51:22.451Z,9.20
2019-03-29T16:53:50.575Z,8.85
2019-03-29T16:56:18.793Z,9.15
2019-03-29T16:58:46.997Z,9.35
2019-03-29T17:01:15.127Z,8.63
2019-03-29T17:03:43.441Z,9.48
2019-03-29T17:06:11.598Z,10.18
2019-03-29T17:08:39.799Z,9.40
2019-03-29T17:11:08.409Z,9.05
2019-03-29T17:13:36.571Z,8.55
2019-03-29T17:16:04.889Z,8.73
2019-03-29T17:18:33.071Z,9.23
2019-03-29T17:21:01.282Z,9.10
2019-03-29T17:23:29.539Z,9.03
2019-03-29T17:25:57.774Z,9.10
2019-03-29T17:28:25.906Z,9.98
2019-03-29T17:30:55.678Z,9.95
2019-03-29T17:33:24.758Z,9.95
2019-03-29T17:35:52.949Z,10.10
2019-03-29T17:38:21.175Z,10.35
2019-03-29T17:40:49.669Z,9.03
2019-03-29T17:43:17.802Z,10.13
2019-03-29T17:45:46.012Z,10.03
2019-03-29T17:48:14.491Z,9.15
2019-03-29T17:50:42.618Z,9.95
2019-03-29T17:53:10.759Z,9.73
2019-03-29T17:55:38.978Z,10.43
2019-03-29T17:58:07.118Z,8.65
2019-03-29T18:00:35.258Z,11.83
2019-03-29T18:03:03.823Z,9.45
2019-03-29T18:05:31.966Z,9.20
2019-03-29T18:08:00.265Z,9.38
2019-03-29T18:10:28.630Z,10.48
2019-03-29T18:12:56.783Z,9.10
2019-03-29T18:15:24.949Z,10.05
2019-03-29T18:17:53.185Z,10.35
2019-03-29T18:20:21.321Z,9.50
2019-03-29T18:22:49.466Z,10.43
2019-03-29T18:25:17.773Z,9.48
2019-03-29T18:27:45.917Z,9.58
2019-03-29T18:30:14.138Z,10.58
2019-03-29T18:32:42.301Z,10.43
2019-03-29T18:35:10.628Z,11.85
2019-03-29T18:37:38.961Z,12.93
2019-03-29T18:40:08.834Z,13.22
2019-03-29T18:42:36.986Z,13.32
2019-03-29T18:45:06.703Z,16.87
2019-03-29T18:47:34.929Z,18.30
2019-03-29T18:50:03.640Z,16.37
2019-03-29T18:52:31.810Z,18.57
2019-03-29T18:55:00.245Z,18.75
2019-03-29T18:57:28.586Z,18.40
2019-03-29T18:59:56.739Z,17.52
2019-03-29T19:02:25.357Z,18.23
2019-03-29T19:04:53.498Z,19.62
2019-03-29T19:07:23.174Z,23.00
2019-03-29T19:09:51.538Z,26.70
2019-03-29T19:12:19.673Z,27.80
2019-03-29T19:14:48.217Z,31.05
2019-03-29T19:17:16.951Z,28.70
2019-03-29T19:19:45.103Z,24.00
2019-03-29T19:22:13.297Z,23.42
2019-03-29T19:24:41.588Z,18.48
2019-03-29T19:27:09.797Z,22.98
2019-03-29T19:29:37.950Z,19.65
2019-03-29T19:32:06.170Z,14.33
2019-03-29T19:34:34.312Z,16.35
2019-03-29T19:37:02.468Z,20.27
2019-03-29T19:39:31.198Z,14.23
2019-03-29T19:41:59.430Z,15.28
2019-03-29T19:44:27.621Z,14.75
2019-03-29T19:46:55.996Z,13.30
2019-03-29T19:49:24.177Z,15.45
2019-03-29T19:51:52.392Z,15.45
2019-03-29T19:54:20.787Z,15.90
2019-03-29T19:56:49.033Z,19.55
2019-03-29T19:59:17.224Z,17.40
2019-03-29T20:01:45.595Z,17.23
2019-03-29T20:04:13.910Z,17.90
2019-03-29T20:06:42.155Z,16.48
2019-03-29T20:09:10.721Z,15.78
2019-03-29T20:11:38.861Z,14.00
2019-03-29T20:14:07.010Z,13.30
2019-03-29T20:16:35.346Z,11.80
2019-03-29T20:19:03.557Z,15.05
2019-03-29T20:21:31.884Z,10.30
2019-03-29T20:24:00.493Z,10.90
2019-03-29T20:26:28.624Z,12.05
2019-03-29T20:28:56.769Z,13.48
2019-03-29T20:31:24.942Z,12.18
2019-03-29T20:33:53.258Z,16.73
2019-03-29T20:36:24.478Z,14.43
2019-03-29T20:38:52.994Z,14.67
2019-03-29T20:41:21.252Z,14.00
2019-03-29T20:43:49.434Z,12.03
2019-03-29T20:46:17.936Z,11.63
2019-03-29T20:48:46.070Z,12.00
2019-03-29T20:51:14.221Z,12.13
2019-03-29T20:53:43.749Z,13.00
2019-03-29T20:56:12.236Z,11.68
2019-03-29T20:58:40.893Z,10.90
2019-03-29T21:01:09.295Z,12.70
2019-03-29T21:03:37.510Z,10.95
2019-03-29T21:06:05.642Z,9.23
2019-03-29T21:08:33.986Z,9.43
2019-03-29T21:11:02.288Z,11.70
2019-03-29T21:13:32.585Z,12.65
2019-03-29T21:16:00.538Z,14.85
2019-03-29T21:18:28.677Z,10.53
2019-03-29T21:20:56.820Z,10.30
2019-03-29T21:23:25.042Z,10.27
2019-03-29T21:25:53.195Z,10.95
2019-03-29T21:28:21.330Z,10.43
2019-03-29T21:30:49.557Z,14.28
2019-03-29T21:33:17.693Z,12.43
2019-03-29T21:35:45.839Z,12.15
2019-03-29T21:38:14.006Z,9.90
2019-03-29T21:40:42.202Z,12.07
2019-03-29T21:43:10.337Z,10.40
2019-03-29T21:45:38.645Z,13.73
2019-03-29T21:48:27.484Z,11.73
2019-03-29T21:50:36.701Z,10.27
2019-03-29T21:53:04.882Z,11.10
2019-03-29T21:55:33.018Z,11.40
2019-03-29T21:58:01.154Z,10.60
2019-03-29T22:00:29.535Z,10.90
2019-03-29T22:02:57.681Z,9.73
2019-03-29T22:05:25.807Z,10.50
2019-03-29T22:07:54.106Z,10.97
2019-03-29T22:10:22.314Z,10.00
2019-03-29T22:12:51.152Z,11.67
2019-03-29T22:15:19.454Z,11.33
2019-03-29T22:17:47.600Z,12.23
2019-03-29T22:20:15.727Z,10.65
2019-03-29T22:22:44.416Z,10.53
2019-03-29T22:25:12.732Z,10.87
2019-03-29T22:27:40.867Z,10.97
2019-03-29T22:30:09.857Z,11.53
2019-03-29T22:32:38.008Z,11.57
2019-03-29T22:35:06.810Z,10.80
2019-03-29T22:37:36.999Z,10.77
2019-03-29T22:40:06.689Z,11.00
2019-03-29T22:42:34.834Z,10.10
2019-03-29T22:45:03.849Z,12.03
2019-03-29T22:47:31.986Z,13.33
2019-03-29T22:50:00.268Z,11.83
2019-03-29T22:52:28.575Z,11.80
2019-03-29T22:54:56.789Z,10.33
2019-03-29T22:57:24.943Z,10.33
2019-03-29T22:59:53.301Z,10.20
2019-03-29T23:02:21.444Z,9.63
2019-03-29T23:04:49.589Z,11.57
2019-03-29T23:07:17.773Z,13.03
2019-03-29T23:09:45.922Z,10.03
2019-03-29T23:12:14.049Z,9.90
2019-03-29T23:14:42.247Z,10.27
2019-03-29T23:17:10.383Z,10.40
2019-03-29T23:19:38.530Z,11.07
2019-03-29T23:22:06.731Z,11.33
2019-03-29T23:24:34.955Z,10.90
2019-03-29T23:27:03.093Z,11.63
2019-03-29T23:29:31.442Z,11.77
2019-03-29T23:31:59.574Z,10.70
2019-03-29T23:34:27.725Z,13.03
2019-03-29T23:36:56.186Z,10.50
2019-03-29T23:39:24.329Z,11.33
2019-03-29T23:41:52.477Z,11.03
2019-03-29T23:44:20.673Z,13.47
2019-03-29T23:46:48.819Z,10.33
2019-03-29T23:49:21.266Z,10.63
2019-03-29T23:51:47.022Z,10.37
2019-03-29T23:54:15.162Z,11.17
2019-03-29T23:56:43.296Z,10.50
2019-03-29T23:59:11.669Z,10.67
